Time;durP1;ratioP1;P1;durP2;ratioP2;P2;SDS_P1;SDS_P2;PMS_P1;PMS_P2;Temp;Humidity;BMP_temperature;BMP_pressure;BME280_temperature;BME280_humidity;BME280_pressure;Samples;Min_cycle;Max_cycle;Signal;HPM_P1;HPM_P2
2021/05/06 00:34:13;;;;;;;1.13;0.93;;;7.90;99.90;;;;;;4935203;29;20489;-77
2021/05/06 00:36:38;;;;;;;2.58;1.30;;;7.70;99.90;;;;;;4918749;29;20036;-77
2021/05/06 00:39:15;;;;;;;3.13;1.02;;;7.60;99.90;;;;;;4915585;29;20044;-77
2021/05/06 01:06:11;;;;;;;1.08;0.90;;;7.60;99.90;;;;;;4972711;28;20497;-77
2021/05/06 01:08:47;;;;;;;1.83;1.20;;;7.50;99.90;;;;;;4972783;28;20080;-77
2021/05/06 01:14:00;;;;;;;3.80;2.08;;;7.20;99.90;;;;;;4972346;28;20380;-77
2021/05/06 01:16:26;;;;;;;4.15;1.95;;;7.10;99.90;;;;;;4972156;28;20103;-77
2021/05/06 01:18:52;;;;;;;5.40;1.50;;;7.20;99.90;;;;;;4970221;28;20529;-77
2021/05/06 01:21:18;;;;;;;2.60;1.40;;;7.20;99.90;;;;;;4962457;28;20101;-77
2021/05/06 01:23:45;;;;;;;2.25;1.10;;;7.10;99.90;;;;;;4955639;28;20122;-77
2021/05/06 01:26:19;;;;;;;2.15;1.40;;;7.00;99.90;;;;;;4953337;28;20471;-77
2021/05/06 01:28:51;;;;;;;3.80;1.02;;;7.10;99.90;;;;;;4953367;28;20495;-77
2021/05/06 01:31:20;;;;;;;1.65;0.88;;;7.20;99.90;;;;;;4953229;28;20035;-77
2021/05/06 01:33:52;;;;;;;4.40;1.20;;;7.20;99.90;;;;;;4953376;28;20079;-77
2021/05/06 01:36:23;;;;;;;1.80;1.00;;;7.10;99.90;;;;;;4959976;28;20046;-77
2021/05/06 01:57:49;;;;;;;1.52;0.80;;;7.10;99.90;;;;;;4993761;28;20542;-77
2021/05/06 02:00:22;;;;;;;1.00;0.90;;;7.10;99.90;;;;;;4996622;28;20218;-77
2021/05/06 02:02:48;;;;;;;1.10;0.93;;;7.00;99.90;;;;;;5005644;28;20041;-76
2021/05/06 02:05:15;;;;;;;1.23;0.82;;;7.00;99.90;;;;;;5012721;28;20105;-77
2021/05/06 02:07:43;;;;;;;1.40;0.88;;;6.90;99.90;;;;;;5012554;28;20466;-76
2021/05/06 02:10:11;;;;;;;3.05;1.92;;;6.80;99.90;;;;;;5013436;28;20079;-77
2021/05/06 02:12:38;;;;;;;1.73;0.90;;;6.70;99.90;;;;;;5011886;28;20025;-77
2021/05/06 02:15:09;;;;;;;1.55;1.10;;;6.70;99.90;;;;;;5012049;28;20496;-77
2021/05/06 02:17:36;;;;;;;1.55;1.25;;;6.70;99.90;;;;;;5013671;28;20021;-77
2021/05/06 02:20:03;;;;;;;1.15;0.75;;;6.60;99.90;;;;;;5008408;28;20045;-76
2021/05/06 02:22:29;;;;;;;2.38;1.02;;;6.30;99.90;;;;;;5008691;28;20045;-77
2021/05/06 02:24:55;;;;;;;1.38;0.88;;;6.40;99.90;;;;;;5011075;28;20038;-77
2021/05/06 02:27:21;;;;;;;1.50;0.90;;;6.50;99.90;;;;;;5011558;28;20034;-76
2021/05/06 02:29:47;;;;;;;0.95;0.88;;;6.70;99.90;;;;;;5012257;28;20129;-76
2021/05/06 02:32:13;;;;;;;2.58;1.25;;;6.90;99.90;;;;;;5014514;28;20021;-77
2021/05/06 02:34:40;;;;;;;2.28;0.75;;;7.00;99.90;;;;;;5032539;28;20033;-76
2021/05/06 02:37:06;;;;;;;3.38;1.60;;;6.80;99.90;;;;;;5032949;28;20033;-76
2021/05/06 02:39:32;;;;;;;2.70;1.55;;;6.70;99.90;;;;;;5031803;28;20125;-76
2021/05/06 02:41:58;;;;;;;3.38;0.95;;;6.60;99.90;;;;;;5031408;28;20160;-76
2021/05/06 02:44:24;;;;;;;1.30;0.93;;;6.70;99.90;;;;;;5015697;28;20044;-76
2021/05/06 02:46:49;;;;;;;1.38;0.95;;;6.70;99.90;;;;;;5010148;28;20029;-77
2021/05/06 02:49:15;;;;;;;0.55;0.43;;;6.70;99.90;;;;;;5007736;28;20030;-76
2021/05/06 02:51:47;;;;;;;0.70;0.70;;;6.40;99.90;;;;;;5012692;28;20088;-76
2021/05/06 02:54:13;;;;;;;5.28;1.55;;;6.40;99.90;;;;;;5009300;28;20049;-76
2021/05/06 03:04:29;;;;;;;0.60;0.50;;;6.30;99.90;;;;;;5000863;28;20044;-77
2021/05/06 03:06:59;;;;;;;2.00;0.70;;;6.20;99.90;;;;;;5012096;28;20522;-76
2021/05/06 03:22:44;;;;;;;1.13;0.65;;;5.90;99.90;;;;;;5004430;28;20031;-76
2021/05/06 03:25:14;;;;;;;2.35;0.73;;;6.00;99.90;;;;;;4992883;28;20030;-77
2021/05/06 03:28:25;;;;;;;;;;;6.20;99.90;;;;;;5013283;28;20185;-76
2021/05/06 04:21:31;;;;;;;1.52;0.60;;;5.30;99.90;;;;;;5012719;28;20053;-76
2021/05/06 04:37:22;;;;;;;3.03;0.50;;;5.70;99.90;;;;;;5006877;28;20076;-77
2021/05/06 04:39:55;;;;;;;0.50;0.40;;;5.90;99.90;;;;;;5003715;28;20103;-77
2021/05/06 04:55:51;;;;;;;5.80;0.70;;;5.70;99.90;;;;;;5012609;28;20032;-76
2021/05/06 05:06:38;;;;;;;0.68;0.68;;;5.60;99.90;;;;;;5012606;28;20026;-77
2021/05/06 05:25:20;;;;;;;0.60;0.50;;;5.90;99.90;;;;;;5009480;28;20033;-77
2021/05/06 05:27:47;;;;;;;0.82;0.40;;;6.00;99.90;;;;;;5009898;28;20033;-76
2021/05/06 05:30:13;;;;;;;1.63;0.60;;;6.10;99.90;;;;;;5011355;28;20036;-77
2021/05/06 05:32:39;;;;;;;0.45;0.45;;;6.20;99.90;;;;;;5012779;28;20048;-77
2021/05/06 05:35:14;;;;;;;3.08;0.40;;;6.20;99.90;;;;;;5011327;28;20057;-76
2021/05/06 05:37:44;;;;;;;1.25;0.50;;;6.10;99.90;;;;;;5008671;28;20026;-77
2021/05/06 05:42:53;;;;;;;1.17;0.68;;;6.20;99.90;;;;;;5011630;28;20633;-76
2021/05/06 05:46:41;;;;;;;0.70;0.63;;;6.30;99.90;;;;;;5013293;28;20099;-76
2021/05/06 05:56:24;;;;;;;0.73;0.60;;;6.70;99.90;;;;;;5009806;28;20040;-76
2021/05/06 05:58:51;;;;;;;2.97;1.10;;;6.80;99.90;;;;;;5013861;28;20029;-77
2021/05/06 06:01:17;;;;;;;1.45;1.02;;;6.70;99.90;;;;;;5019669;28;20029;-76
2021/05/06 06:03:43;;;;;;;0.80;0.80;;;6.70;99.90;;;;;;5013583;28;20045;-76
2021/05/06 06:06:09;;;;;;;1.63;1.15;;;6.70;99.90;;;;;;5011927;28;20044;-77
2021/05/06 06:08:37;;;;;;;2.42;0.80;;;6.90;99.90;;;;;;5012306;28;20030;-76
2021/05/06 06:11:03;;;;;;;2.47;1.48;;;7.10;99.90;;;;;;5013252;28;20030;-76
2021/05/06 06:13:30;;;;;;;0.80;0.80;;;7.30;99.90;;;;;;5013366;28;20081;-76
2021/05/06 06:21:16;;;;;;;2.20;1.20;;;7.50;99.90;;;;;;5003117;28;20030;-76
2021/05/06 06:23:42;;;;;;;9.95;8.40;;;7.60;99.90;;;;;;5009114;28;20049;-76
2021/05/06 06:26:08;;;;;;;3.42;3.22;;;7.90;99.90;;;;;;5010740;28;20044;-76
2021/05/06 06:28:39;;;;;;;2.55;1.85;;;7.90;99.90;;;;;;5007222;28;20030;-76
2021/05/06 06:31:12;;;;;;;2.17;0.98;;;8.00;99.90;;;;;;5010547;28;20367;-76
2021/05/06 06:33:38;;;;;;;5.10;2.80;;;8.00;99.90;;;;;;5006266;28;20025;-76
2021/05/06 06:36:05;;;;;;;3.40;1.27;;;8.00;99.90;;;;;;5010383;28;20025;-76
2021/05/06 06:38:31;;;;;;;1.65;1.08;;;8.00;99.90;;;;;;5009881;28;20038;-76
2021/05/06 06:40:57;;;;;;;3.50;0.80;;;8.20;99.90;;;;;;5010140;28;20371;-76
2021/05/06 06:43:23;;;;;;;1.45;0.73;;;8.40;99.90;;;;;;5010742;28;20052;-76
2021/05/06 06:45:48;;;;;;;3.67;0.90;;;8.40;99.90;;;;;;5008112;28;20378;-77
2021/05/06 06:48:14;;;;;;;2.75;0.60;;;8.70;99.90;;;;;;5011997;28;20022;-77
2021/05/06 06:50:40;;;;;;;1.10;1.02;;;8.70;99.90;;;;;;5009744;28;20026;-77
2021/05/06 06:53:07;;;;;;;1.50;1.10;;;8.80;99.90;;;;;;5009882;28;20106;-77
2021/05/06 06:55:33;;;;;;;1.85;1.00;;;9.00;99.90;;;;;;5011519;28;20474;-77
2021/05/06 06:58:12;;;;;;;1.23;0.90;;;9.10;99.90;;;;;;5010737;28;20045;-77
2021/05/06 07:00:40;;;;;;;3.15;1.20;;;9.30;99.90;;;;;;5010882;28;20026;-77
2021/05/06 07:03:06;;;;;;;1.98;1.27;;;9.40;99.90;;;;;;5014296;28;20100;-77
2021/05/06 07:05:33;;;;;;;2.13;1.67;;;9.50;99.90;;;;;;5013452;28;20034;-77
2021/05/06 07:08:29;;;;;;;4.38;1.30;;;9.70;99.90;;;;;;5014421;28;20072;-77
2021/05/06 07:10:57;;;;;;;1.98;1.25;;;9.80;99.90;;;;;;5011851;28;20014;-76
2021/05/06 07:13:23;;;;;;;3.58;1.40;;;9.90;99.90;;;;;;5013166;28;20604;-77
2021/05/06 07:15:55;;;;;;;7.53;1.23;;;10.00;99.90;;;;;;5013747;28;20026;-77
2021/05/06 07:18:22;;;;;;;3.45;1.15;;;10.10;99.90;;;;;;5011079;28;20033;-77
2021/05/06 07:20:49;;;;;;;1.52;0.95;;;10.20;99.90;;;;;;5009871;28;20021;-77
2021/05/06 07:23:18;;;;;;;2.15;0.90;;;10.30;99.90;;;;;;5014091;28;20033;-77
2021/05/06 07:25:45;;;;;;;1.05;0.98;;;10.50;99.90;;;;;;5013815;28;20120;-77
2021/05/06 07:28:12;;;;;;;1.45;1.08;;;10.60;99.90;;;;;;5013661;28;20029;-77
2021/05/06 07:30:41;;;;;;;1.02;0.90;;;10.70;99.90;;;;;;5013819;28;20116;-77
2021/05/06 07:33:10;;;;;;;0.60;0.60;;;10.90;99.90;;;;;;5013043;28;20040;-77
2021/05/06 07:35:36;;;;;;;1.40;0.77;;;11.10;99.90;;;;;;5008713;28;20032;-77
2021/05/06 07:38:03;;;;;;;1.20;1.10;;;11.30;99.90;;;;;;5013888;28;20029;-77
2021/05/06 07:40:29;;;;;;;0.90;0.90;;;11.40;99.90;;;;;;5015809;28;20037;-77
2021/05/06 07:42:55;;;;;;;3.30;0.80;;;11.40;99.90;;;;;;5014308;28;20041;-77
2021/05/06 07:45:21;;;;;;;0.50;0.40;;;11.60;99.90;;;;;;5012535;28;20018;-77
2021/05/06 07:47:48;;;;;;;2.00;0.63;;;11.90;99.90;;;;;;5012928;28;20121;-77
2021/05/06 07:50:15;;;;;;;1.00;0.50;;;12.20;99.90;;;;;;5014024;28;20030;-77
2021/05/06 07:52:42;;;;;;;0.50;0.45;;;12.30;99.90;;;;;;5012403;28;20045;-77
2021/05/06 07:55:10;;;;;;;1.23;1.00;;;12.30;99.90;;;;;;5021045;28;20037;-77
2021/05/06 07:57:36;;;;;;;1.10;0.80;;;12.50;99.90;;;;;;5023797;28;20029;-77
2021/05/06 08:00:05;;;;;;;1.75;0.60;;;12.60;99.90;;;;;;5015019;28;20026;-77
2021/05/06 08:02:31;;;;;;;0.82;0.60;;;12.80;99.90;;;;;;5013244;28;20121;-77
2021/05/06 08:04:57;;;;;;;0.60;0.60;;;13.00;99.90;;;;;;5014350;28;20101;-77
2021/05/06 08:07:22;;;;;;;4.68;0.80;;;13.20;99.90;;;;;;5014233;28;20030;-77
2021/05/06 08:09:48;;;;;;;0.70;0.68;;;13.60;99.90;;;;;;5011143;28;20061;-77
2021/05/06 08:12:15;;;;;;;1.02;0.80;;;13.80;99.90;;;;;;5013384;28;20034;-77
2021/05/06 08:14:41;;;;;;;0.50;0.50;;;14.00;99.90;;;;;;5013894;28;20034;-77
2021/05/06 08:17:06;;;;;;;0.65;0.65;;;14.20;99.90;;;;;;5018241;28;20033;-77
2021/05/06 08:19:33;;;;;;;0.75;0.43;;;14.40;99.90;;;;;;5012694;28;20026;-77
2021/05/06 08:22:00;;;;;;;0.40;0.40;;;14.60;99.90;;;;;;5013255;28;20052;-77
2021/05/06 08:24:26;;;;;;;0.93;0.63;;;14.80;99.90;;;;;;5012944;28;20030;-77
2021/05/06 08:26:52;;;;;;;0.40;0.40;;;14.80;99.90;;;;;;5013643;28;20034;-77
2021/05/06 08:29:17;;;;;;;0.30;0.30;;;15.00;99.90;;;;;;5012657;28;20406;-77
2021/05/06 08:31:43;;;;;;;1.77;0.52;;;15.10;99.90;;;;;;5013564;28;20553;-77
2021/05/06 08:34:09;;;;;;;1.52;0.60;;;15.40;99.90;;;;;;5012441;28;20108;-77
2021/05/06 08:36:35;;;;;;;0.50;0.50;;;15.50;99.90;;;;;;5014783;28;20061;-77
2021/05/06 08:39:00;;;;;;;1.80;0.50;;;15.50;99.90;;;;;;5010045;28;20042;-77
2021/05/06 08:41:26;;;;;;;0.55;0.38;;;15.80;99.90;;;;;;5013552;28;20490;-77
2021/05/06 08:43:56;;;;;;;0.70;0.30;;;16.00;99.90;;;;;;5013672;28;20030;-77
2021/05/06 08:46:22;;;;;;;0.70;0.30;;;16.30;99.90;;;;;;5013436;28;20056;-77
2021/05/06 08:48:48;;;;;;;0.68;0.50;;;16.50;99.90;;;;;;5013607;28;20027;-77
2021/05/06 08:51:15;;;;;;;0.88;0.50;;;16.60;99.90;;;;;;5013001;28;20526;-77
2021/05/06 08:53:44;;;;;;;1.20;0.50;;;16.70;99.90;;;;;;5014822;28;20017;-77
2021/05/06 08:56:10;;;;;;;0.77;0.45;;;17.00;99.90;;;;;;5019007;28;20049;-77
2021/05/06 08:58:36;;;;;;;1.02;0.30;;;17.00;99.90;;;;;;5021894;28;20057;-77
2021/05/06 09:01:02;;;;;;;0.40;0.40;;;17.20;99.90;;;;;;5011311;28;20034;-77
2021/05/06 09:03:28;;;;;;;0.47;0.40;;;17.20;99.90;;;;;;5002513;28;20113;-77
2021/05/06 09:06:19;;;;;;;0.90;0.40;;;17.50;99.90;;;;;;5013130;28;20026;-77
2021/05/06 09:08:51;;;;;;;0.77;0.50;;;17.60;99.90;;;;;;5007930;28;20049;-77
2021/05/06 09:11:35;;;;;;;0.80;0.40;;;17.70;99.90;;;;;;5009141;28;20033;-77
2021/05/06 09:14:11;;;;;;;0.38;0.38;;;17.80;99.90;;;;;;5013234;28;20018;-77
2021/05/06 09:16:41;;;;;;;0.65;0.30;;;17.80;99.90;;;;;;5012449;28;20018;-77
2021/05/06 09:19:09;;;;;;;0.57;0.43;;;17.80;99.90;;;;;;5010083;28;20053;-77
2021/05/06 09:21:39;;;;;;;0.45;0.40;;;17.70;99.90;;;;;;5011365;28;20475;-77
2021/05/06 09:24:12;;;;;;;0.80;0.47;;;17.90;99.90;;;;;;5012134;28;20022;-77
2021/05/06 09:26:40;;;;;;;1.08;0.40;;;18.40;99.90;;;;;;5013105;28;20347;-77
2021/05/06 09:29:08;;;;;;;1.70;0.43;;;18.70;99.90;;;;;;5012994;28;20017;-77
2021/05/06 09:31:36;;;;;;;0.50;0.20;;;18.90;99.90;;;;;;5019255;28;20046;-77
2021/05/06 09:34:05;;;;;;;1.65;0.40;;;18.90;99.90;;;;;;5012416;28;20051;-77
2021/05/06 09:36:31;;;;;;;0.45;0.35;;;19.20;99.90;;;;;;5010687;28;20084;-78
2021/05/06 09:38:59;;;;;;;3.05;0.45;;;19.60;99.90;;;;;;5011111;28;20022;-77
2021/05/06 09:41:28;;;;;;;1.10;0.40;;;19.80;99.90;;;;;;5009522;28;20030;-78
2021/05/06 09:44:05;;;;;;;1.35;0.55;;;19.80;99.90;;;;;;5004939;28;20112;-77
2021/05/06 09:46:37;;;;;;;0.65;0.65;;;21.10;98.00;;;;;;5007466;28;20087;-77
2021/05/06 09:49:08;;;;;;;0.57;0.57;;;24.80;79.10;;;;;;5005763;28;20532;-77
2021/05/06 09:51:43;;;;;;;;;;;28.80;65.60;;;;;;5009451;28;20506;-77
2021/05/06 09:54:15;;;;;;;0.80;0.75;;;29.00;57.10;;;;;;5005293;28;20006;-77
2021/05/06 09:56:42;;;;;;;0.80;0.80;;;29.60;59.50;;;;;;5008346;28;20065;-77
2021/05/06 09:59:09;;;;;;;0.80;0.80;;;31.00;56.30;;;;;;5005351;28;20197;-77
2021/05/06 10:01:42;;;;;;;0.75;0.75;;;31.50;54.90;;;;;;5006766;28;20050;-78
2021/05/06 10:04:19;;;;;;;0.80;0.80;;;32.20;52.50;;;;;;5007629;28;20092;-77
2021/05/06 10:07:04;;;;;;;3.47;1.00;;;32.30;49.80;;;;;;5010838;28;20029;-78
2021/05/06 10:09:31;;;;;;;0.80;0.80;;;33.20;50.90;;;;;;4999229;28;20026;-78
2021/05/06 10:11:58;;;;;;;0.70;0.70;;;33.70;49.50;;;;;;5004994;28;20029;-78
2021/05/06 10:14:24;;;;;;;8.35;1.10;;;31.00;45.20;;;;;;5010983;28;20072;-78
2021/05/06 10:16:50;;;;;;;1.10;1.10;;;30.80;50.50;;;;;;5013758;28;20433;-78
2021/05/06 10:19:16;;;;;;;3.13;2.05;;;33.10;52.80;;;;;;5011971;28;20053;-78
2021/05/06 10:21:44;;;;;;;1.08;1.08;;;34.70;48.40;;;;;;5010236;28;20034;-78
2021/05/06 10:24:10;;;;;;;1.25;1.25;;;35.00;48.10;;;;;;5008353;28;20545;-78
2021/05/06 10:26:37;;;;;;;1.20;1.20;;;34.70;47.20;;;;;;5011967;28;20482;-78
2021/05/06 10:29:04;;;;;;;9.93;1.40;;;34.20;46.80;;;;;;5009529;28;20453;-78
2021/05/06 10:31:31;;;;;;;1.27;1.17;;;34.00;50.50;;;;;;5006424;28;20022;-78
2021/05/06 10:33:57;;;;;;;1.20;1.20;;;34.90;48.80;;;;;;5006207;28;20088;-78
2021/05/06 10:36:23;;;;;;;4.95;1.15;;;34.60;44.60;;;;;;5019957;28;20038;-79
2021/05/06 10:38:49;;;;;;;1.40;1.30;;;35.40;44.70;;;;;;5016475;28;20026;-78
2021/05/06 10:41:34;;;;;;;5.72;1.55;;;35.70;46.20;;;;;;5016317;28;20088;-78
2021/05/06 10:44:08;;;;;;;1.33;1.15;;;34.80;45.40;;;;;;5016183;28;20022;-78
2021/05/06 10:46:57;;;;;;;1.40;1.30;;;35.50;47.20;;;;;;5016275;28;20033;-78
2021/05/06 10:49:24;;;;;;;;;;;36.10;46.50;;;;;;5016774;28;20061;-78
2021/05/06 10:52:01;;;;;;;1.30;1.20;;;36.50;45.30;;;;;;5016218;28;20433;-78
2021/05/06 10:54:32;;;;;;;2.15;1.40;;;36.70;47.80;;;;;;5016047;28;20044;-78
2021/05/06 10:57:00;;;;;;;1.52;1.42;;;36.70;44.80;;;;;;5016070;28;20033;-78
2021/05/06 10:59:31;;;;;;;1.30;1.30;;;36.60;44.10;;;;;;5016066;28;20525;-78
2021/05/06 11:01:57;;;;;;;1.33;1.30;;;35.80;42.90;;;;;;5015572;28;20406;-78
2021/05/06 11:05:08;;;;;;;1.40;1.17;;;35.20;46.00;;;;;;5015956;28;20500;-78
2021/05/06 11:07:34;;;;;;;1.27;1.23;;;35.50;47.80;;;;;;5015940;28;20033;-78
2021/05/06 11:10:02;;;;;;;1.35;1.25;;;35.50;45.10;;;;;;5016000;28;20026;-78
2021/05/06 11:12:29;;;;;;;1.50;1.40;;;34.90;45.60;;;;;;5015517;28;20068;-78
2021/05/06 11:15:01;;;;;;;1.33;1.20;;;34.80;44.70;;;;;;5015933;28;20372;-78
2021/05/06 11:17:39;;;;;;;1.30;1.20;;;34.70;47.00;;;;;;5015567;28;20036;-78
2021/05/06 11:20:10;;;;;;;1.30;1.30;;;34.20;43.80;;;;;;5015533;28;20037;-78
2021/05/06 11:22:43;;;;;;;3.08;1.40;;;35.20;44.70;;;;;;5015575;28;20022;-78
2021/05/06 11:27:59;;;;;;;;;;;36.50;46.60;;;;;;5016123;28;20037;-78
2021/05/06 11:30:35;;;;;;;1.23;1.23;;;36.70;44.20;;;;;;5015158;28;19906;-76
2021/05/06 11:33:19;;;;;;;1.40;1.30;;;37.40;44.30;;;;;;5015319;28;20034;-75
2021/05/06 11:35:56;;;;;;;1.30;1.23;;;38.80;43.20;;;;;;5015136;28;20061;-75
2021/05/06 11:38:44;;;;;;;1.30;1.30;;;38.90;40.40;;;;;;5015168;28;20037;-75
2021/05/06 11:41:27;;;;;;;1.55;1.50;;;38.50;40.50;;;;;;5015362;28;20032;-75
2021/05/06 11:44:03;;;;;;;2.50;1.60;;;38.80;41.80;;;;;;5015094;28;20038;-75
2021/05/06 11:46:30;;;;;;;4.10;1.42;;;39.60;40.70;;;;;;5014629;28;20068;-75
2021/05/06 11:48:58;;;;;;;1.60;1.50;;;39.50;40.80;;;;;;5014565;28;20023;-76
2021/05/06 11:51:32;;;;;;;1.55;1.48;;;39.20;41.60;;;;;;5015108;28;20025;-75
2021/05/06 11:54:16;;;;;;;1.45;1.40;;;37.90;37.50;;;;;;5013935;28;20552;-76
2021/05/06 11:56:49;;;;;;;1.48;1.35;;;36.90;40.10;;;;;;5014991;28;20049;-75
2021/05/06 11:59:16;;;;;;;1.65;1.50;;;37.50;40.60;;;;;;5014655;28;20390;-76
2021/05/06 12:01:42;;;;;;;1.55;1.45;;;39.20;41.30;;;;;;5014704;28;20037;-76
2021/05/06 12:04:25;;;;;;;1.60;1.50;;;40.70;41.60;;;;;;5014872;28;20552;-76
2021/05/06 12:06:51;;;;;;;1.40;1.40;;;39.70;40.10;;;;;;5015030;28;20504;-76
2021/05/06 12:09:25;;;;;;;1.50;1.40;;;38.10;41.10;;;;;;5014712;28;20022;-76
2021/05/06 12:11:52;;;;;;;2.90;1.60;;;39.50;42.00;;;;;;5014777;28;20026;-76
2021/05/06 12:14:30;;;;;;;1.75;1.35;;;37.90;41.40;;;;;;5014186;28;20033;-76
2021/05/06 12:16:56;;;;;;;1.40;1.35;;;38.50;41.30;;;;;;5014674;28;20052;-76
2021/05/06 12:19:22;;;;;;;1.30;1.30;;;40.70;40.50;;;;;;5014547;28;20034;-76
2021/05/06 12:21:54;;;;;;;1.45;1.35;;;40.30;36.40;;;;;;5014636;28;20387;-76
2021/05/06 12:24:41;;;;;;;6.72;1.90;;;40.10;40.90;;;;;;5014353;28;20025;-76
2021/05/06 12:27:20;;;;;;;1.90;1.35;;;39.00;40.30;;;;;;5014506;28;20026;-76
2021/05/06 12:29:47;;;;;;;2.28;1.45;;;39.60;39.70;;;;;;5014043;28;20030;-76
2021/05/06 12:32:20;;;;;;;1.67;1.58;;;40.30;39.10;;;;;;5014364;28;20490;-76
2021/05/06 12:34:46;;;;;;;2.17;1.30;;;40.90;41.60;;;;;;5014308;28;20034;-76
2021/05/06 12:37:12;;;;;;;1.63;1.52;;;40.90;40.10;;;;;;5014305;28;20030;-76
2021/05/06 12:39:41;;;;;;;1.40;1.30;;;40.60;39.40;;;;;;5005336;28;20037;-75
2021/05/06 12:42:09;;;;;;;1.40;1.30;;;39.30;40.90;;;;;;5012160;28;20075;-76
2021/05/06 12:44:49;;;;;;;1.67;1.58;;;39.20;41.40;;;;;;5011036;28;20046;-76
2021/05/06 12:47:27;;;;;;;2.28;1.50;;;40.20;42.20;;;;;;5008636;28;20018;-76
2021/05/06 12:50:13;;;;;;;2.67;1.30;;;40.80;40.00;;;;;;5011006;28;20414;-75
2021/05/06 12:52:44;;;;;;;2.40;1.80;;;38.70;40.00;;;;;;5008839;28;20024;-76
2021/05/06 12:55:16;;;;;;;3.05;1.55;;;34.70;43.70;;;;;;5013592;28;20021;-76
2021/05/06 12:57:42;;;;;;;1.50;1.40;;;37.10;43.90;;;;;;5013688;28;20014;-76
2021/05/06 13:00:23;;;;;;;1.63;1.40;;;38.10;42.50;;;;;;5016091;28;20478;-76
2021/05/06 13:02:49;;;;;;;3.08;1.52;;;38.60;40.60;;;;;;5004903;28;20034;-76
2021/05/06 13:05:39;;;;;;;1.92;1.38;;;37.20;42.40;;;;;;5010387;28;20032;-76
2021/05/06 13:08:06;;;;;;;2.55;1.20;;;38.60;43.70;;;;;;5013119;28;20014;-75
2021/05/06 13:11:00;;;;;;;1.23;1.13;;;36.30;42.40;;;;;;5012793;28;20042;-76
2021/05/06 13:13:38;;;;;;;1.00;1.00;;;32.70;46.40;;;;;;5010495;28;20030;-75
2021/05/06 13:16:05;;;;;;;1.85;1.70;;;31.40;51.60;;;;;;5009264;28;20061;-75
2021/05/06 13:18:31;;;;;;;5.38;1.30;;;32.70;53.10;;;;;;5012633;28;20034;-78
2021/05/06 13:20:57;;;;;;;1.38;1.00;;;30.60;53.40;;;;;;5012339;28;20061;-77
2021/05/06 13:23:31;;;;;;;3.03;1.40;;;30.70;52.20;;;;;;5012497;28;20053;-78
2021/05/06 13:26:05;;;;;;;2.47;1.33;;;32.30;51.80;;;;;;5012375;28;20028;-78
2021/05/06 13:28:33;;;;;;;1.20;1.20;;;30.20;51.90;;;;;;5011612;28;20025;-77
2021/05/06 13:31:21;;;;;;;8.02;2.40;;;29.10;54.30;;;;;;5007598;28;20101;-77
2021/05/06 13:34:06;;;;;;;1.27;1.17;;;28.70;54.70;;;;;;5009508;28;20025;-77
2021/05/06 13:36:32;;;;;;;1.38;1.10;;;28.10;57.50;;;;;;5011394;28;20079;-77
2021/05/06 13:39:04;;;;;;;1.20;1.08;;;26.70;58.40;;;;;;5001175;28;20109;-77
2021/05/06 13:41:32;;;;;;;1.75;1.00;;;26.70;61.90;;;;;;5009628;28;20026;-77
2021/05/06 13:44:01;;;;;;;0.90;0.90;;;27.00;60.60;;;;;;5009556;28;20454;-77
2021/05/06 13:46:30;;;;;;;2.08;1.10;;;26.40;60.10;;;;;;5009340;28;20454;-77
2021/05/06 13:48:56;;;;;;;1.63;1.10;;;25.20;63.60;;;;;;5011095;28;20049;-77
2021/05/06 13:51:23;;;;;;;2.20;1.30;;;25.00;67.90;;;;;;5010823;28;20049;-77
2021/05/06 13:53:50;;;;;;;1.40;1.20;;;24.60;66.80;;;;;;5024397;28;20014;-77
2021/05/06 13:56:16;;;;;;;2.88;1.17;;;24.70;71.20;;;;;;5020994;28;20033;-77
2021/05/06 13:58:42;;;;;;;2.15;1.30;;;24.80;68.20;;;;;;5012806;28;20022;-77
2021/05/06 14:01:10;;;;;;;1.35;1.33;;;24.60;66.90;;;;;;5008810;28;20022;-77
2021/05/06 14:03:37;;;;;;;1.42;1.00;;;23.90;69.70;;;;;;5011243;28;20094;-77
2021/05/06 14:06:04;;;;;;;3.13;1.20;;;23.80;71.80;;;;;;5010519;28;20038;-77
2021/05/06 14:08:30;;;;;;;5.53;1.38;;;23.60;76.20;;;;;;5012298;28;20355;-77
2021/05/06 14:10:56;;;;;;;1.20;1.20;;;23.00;77.80;;;;;;5010684;28;20485;-77
2021/05/06 14:13:23;;;;;;;1.65;1.52;;;22.70;82.40;;;;;;5008575;28;20084;-77
2021/05/06 14:15:50;;;;;;;1.45;1.30;;;22.50;81.70;;;;;;5009449;28;20042;-76
2021/05/06 14:18:16;;;;;;;1.20;1.17;;;22.10;88.80;;;;;;5000947;28;20104;-77
2021/05/06 14:20:43;;;;;;;2.63;1.45;;;22.00;91.20;;;;;;5011914;28;20030;-76
2021/05/06 14:23:11;;;;;;;2.42;1.60;;;21.80;89.90;;;;;;5009978;28;20037;-77
2021/05/06 14:25:38;;;;;;;1.42;1.33;;;21.50;90.70;;;;;;5010590;28;20486;-77
2021/05/06 14:28:05;;;;;;;12.02;2.35;;;21.30;91.40;;;;;;5010050;28;20494;-77
2021/05/06 14:30:33;;;;;;;2.95;1.40;;;21.30;93.90;;;;;;5003968;28;20062;-77
2021/05/06 14:33:00;;;;;;;1.88;1.48;;;21.40;92.40;;;;;;5012933;28;20080;-77
2021/05/06 14:35:26;;;;;;;1.50;1.40;;;21.20;92.00;;;;;;5008326;28;20080;-77
2021/05/06 14:37:52;;;;;;;2.92;1.38;;;21.00;93.20;;;;;;5011375;28;20014;-77
2021/05/06 14:40:17;;;;;;;1.42;1.17;;;20.90;93.60;;;;;;5010286;28;20041;-76
2021/05/06 14:42:44;;;;;;;1.52;1.42;;;20.90;94.50;;;;;;5012192;28;20037;-77
2021/05/06 14:45:10;;;;;;;1.35;1.08;;;20.90;96.80;;;;;;5010752;28;20018;-77
2021/05/06 14:47:37;;;;;;;4.15;1.48;;;20.90;95.00;;;;;;5011687;28;20109;-76
2021/05/06 14:50:05;;;;;;;3.83;1.42;;;20.80;94.90;;;;;;5006609;28;20482;-77
2021/05/06 14:52:31;;;;;;;2.38;1.33;;;20.80;96.70;;;;;;5010562;28;20026;-77
2021/05/06 14:54:57;;;;;;;2.08;1.30;;;20.90;95.40;;;;;;5010176;28;20026;-76
2021/05/06 14:57:23;;;;;;;1.65;1.55;;;21.00;94.30;;;;;;5013156;28;20029;-77
2021/05/06 14:59:48;;;;;;;3.58;2.22;;;20.80;94.10;;;;;;5012189;28;20065;-77
2021/05/06 15:02:14;;;;;;;6.32;1.50;;;20.70;97.60;;;;;;5002920;28;20046;-77
2021/05/06 15:04:40;;;;;;;2.17;1.27;;;20.30;98.80;;;;;;5008763;28;20026;-77
2021/05/06 15:07:06;;;;;;;4.20;2.08;;;20.00;99.80;;;;;;5012248;28;20379;-77
2021/05/06 15:09:31;;;;;;;1.38;1.27;;;20.00;99.90;;;;;;5007626;28;20040;-77
2021/05/06 15:11:59;;;;;;;1.63;1.52;;;20.00;99.90;;;;;;5010706;28;20051;-77
2021/05/06 15:14:25;;;;;;;3.85;1.40;;;19.80;99.90;;;;;;5010493;28;20030;-77
2021/05/06 15:16:51;;;;;;;1.65;1.55;;;19.90;99.90;;;;;;5009830;28;20088;-76
2021/05/06 15:19:17;;;;;;;9.77;1.70;;;19.80;99.90;;;;;;5010440;28;20038;-77
2021/05/06 15:21:42;;;;;;;9.18;1.75;;;19.60;99.90;;;;;;5010335;28;20374;-77
2021/05/06 15:24:09;;;;;;;1.90;1.67;;;19.70;99.90;;;;;;5013856;28;20030;-77
2021/05/06 15:26:36;;;;;;;3.72;1.90;;;19.60;99.90;;;;;;5014311;28;20026;-77
2021/05/06 15:29:03;;;;;;;3.17;1.70;;;19.50;99.90;;;;;;5014517;28;20022;-77
2021/05/06 15:31:30;;;;;;;3.60;1.67;;;19.50;99.90;;;;;;5007217;28;20057;-76
2021/05/06 15:33:56;;;;;;;59.67;5.40;;;19.50;99.90;;;;;;5014073;28;20061;-77
2021/05/06 15:36:23;;;;;;;2.72;1.75;;;19.40;99.90;;;;;;5014104;28;20512;-76
2021/05/06 15:38:49;;;;;;;2.35;1.88;;;19.40;99.90;;;;;;5019052;28;20051;-76
2021/05/06 15:41:14;;;;;;;4.97;1.67;;;19.40;99.90;;;;;;5012046;28;20471;-76
2021/05/06 15:43:40;;;;;;;7.68;1.70;;;19.20;99.90;;;;;;5013303;28;20080;-76
2021/05/06 15:46:06;;;;;;;4.70;1.83;;;19.30;99.90;;;;;;5016535;28;20024;-76
2021/05/06 15:48:35;;;;;;;8.88;1.70;;;19.20;99.90;;;;;;5013485;28;20030;-76
2021/05/06 15:51:00;;;;;;;3.65;1.58;;;19.00;99.90;;;;;;5013732;28;20102;-76
2021/05/06 15:53:27;;;;;;;4.88;1.85;;;19.00;99.90;;;;;;5012788;28;20113;-77
2021/05/06 15:55:54;;;;;;;5.85;1.67;;;18.90;99.90;;;;;;5013489;28;20080;-76
2021/05/06 15:58:22;;;;;;;7.13;1.80;;;19.00;99.90;;;;;;5010956;28;20040;-77
2021/05/06 16:00:48;;;;;;;11.75;2.13;;;18.90;99.90;;;;;;5011977;28;20034;-76
2021/05/06 16:03:16;;;;;;;1.80;1.70;;;18.90;99.90;;;;;;5012214;28;20054;-77
2021/05/06 16:05:49;;;;;;;3.13;1.42;;;18.80;99.90;;;;;;5011181;28;20029;-76
2021/05/06 16:08:15;;;;;;;4.60;1.92;;;18.70;99.90;;;;;;5012158;28;20486;-76
2021/05/06 16:10:41;;;;;;;7.75;1.75;;;18.60;99.90;;;;;;5011965;28;20386;-76
2021/05/06 16:13:07;;;;;;;8.32;2.00;;;18.70;99.90;;;;;;5012633;28;20026;-76
2021/05/06 16:15:33;;;;;;;7.45;1.75;;;18.70;99.90;;;;;;5012781;28;20067;-76
2021/05/06 16:17:58;;;;;;;8.35;1.95;;;18.60;99.90;;;;;;5013097;28;20022;-75
2021/05/06 16:20:30;;;;;;;5.72;2.20;;;18.50;99.90;;;;;;5013167;28;20164;-75
2021/05/06 16:22:57;;;;;;;4.00;1.63;;;18.50;99.90;;;;;;5011312;28;20044;-75
2021/05/06 16:25:23;;;;;;;5.72;2.13;;;18.40;99.90;;;;;;5013245;28;20029;-75
2021/05/06 16:27:48;;;;;;;3.20;2.25;;;18.40;99.90;;;;;;5012161;28;20018;-75
2021/05/06 16:30:15;;;;;;;13.38;2.33;;;18.40;99.90;;;;;;5013164;28;20036;-75
2021/05/06 16:32:42;;;;;;;3.25;1.88;;;18.30;99.90;;;;;;5012759;28;20014;-75
2021/05/06 16:35:13;;;;;;;2.80;2.00;;;18.30;99.90;;;;;;5012719;28;20492;-75
2021/05/06 16:37:46;;;;;;;3.63;2.03;;;18.30;99.90;;;;;;5010939;28;20022;-76
2021/05/06 16:45:22;;;;;;;4.45;2.53;;;18.20;99.90;;;;;;5012840;28;20464;-75
2021/05/06 16:47:48;;;;;;;4.20;2.00;;;18.30;99.90;;;;;;5010436;28;20193;-75